الصفحة الرئيسية
METAR-TAF:

METAR-TAF

مطار :

مطار الأهواز الدولي

الأحواز, إيران

دائرة عرض: 31-20N, خط طول: 048-40E, ارتفاع: 20 متر

مراقبة الطقس الحالي

تاريخ ووقت الإصدار 45 دقيقة قبل الساعة 08:00UTC
ريح 4 عقدة من الغرب/الجنوب الغربي
درجة الحرارة 43°درجة مئوية
الرطوبة 15%
ضغط 997 hPa
الرؤية 10 كم أو أكثر
الغيوم لا تقل 1500 م ولا وجود لمزنة ركامية السحاب الأسود

METAR: OIAW 140800Z 24004KT CAVOK 43/11 Q0997

زمن: 13:15 (08:45 UTC)

توقعات

تاريخ ووقت الإصدار 3ساعات و 21 دقيقة قبل الساعة 05:24UTC
التوقعات صالحة من14 الساعة 06 UTC إلى 15 الساعة 12 UTC
ريح 7 عقدة من الشمال/الشمال الغربي
الرؤية: 8000 متر
أصبح
من 14 الساعة 20 UTC إلى 14 الساعة 22 UTC
ريح 7 عقدة من الجنوب
مؤقت
من 14 الساعة 23 UTC إلى 15 الساعة 06 UTC
الرؤية: 4000 متر
العجاج,

TAF: OIAW 140524Z 1406/1512 33007KT 8000 NSC BECMG 1420/1422 17007KT TEMPO 1423/1506 4000 HZ

أرصاد الطقس والتوقعات من أكثر من 4000 مطار (تقارير الطقس للمطار METAR والتنبؤ بالطقس بالمطارTAF).

المحطات المتاحة هي النقط الصفراء والحمراء على الخريطة.

حرك المؤشر فوق النقطة لمعرفة اسم المحطة.

ثم انقر لمعرفة أرصاد وتوقعات الطقس.

لتغيير الخارطة: اضغط على الأزرار الخضراء مع رمز الصليب الأسود للتكبير. على الزر الأخضر مع شرطة للتصغير، أو على الأسهم الخضراء للخرائط المجاورة.


METAR-TAF: